Impacts METAR Board INFO
IDs:

KIAD - Washington/Dulles In, VA, US

Updated at: 1543 UTC 18 Jan 2018
Potential Impact None Slight Moderate High
Time18/03Z 18/04Z 18/05Z 18/06Z 18/07Z 18/08Z 18/09Z 18/10Z 18/11Z 18/12Z 18/13Z 18/14Z 18/15Z
VIS10 10 10 10 10 10 10 10 10 10 10 10 10
CIG75 80 -- -- -- -- -- -- -- -- -- -- --
CoverOVCOVCSCTSCTSCTSCTFEWFEWFEWFEWFEWFEWFEW
FltCatVFRVFRVFRVFRVFRVFRVFRVFRVFRVFRVFRVFRVFR
WX--------------------------
WDir330320330330320320320320320310310310300
WSpd13 16 10 9 10 12 13 12 13 12 12 10 13
WGst-- 20 -- -- -- 17 23 -- -- 19 20 -- --
Raw hourly METARs
KIAD 180252Z 33013KT 10SM OVC075 M07/M14 A3031 RMK AO2 SLP269 T10671139 55002
KIAD 180352Z 32016G20KT 10SM OVC080 M08/M15 A3030 RMK AO2 SLP266 BINOVC T10781150
KIAD 180452Z 33010KT 10SM SCT090 M08/M14 A3029 RMK AO2 SLP260 T10831144 400001083
KIAD 180552Z 33009KT 10SM SCT090 M09/M14 A3027 RMK AO2 SLP254 T10891144 11056 21089 58016
KIAD 180652Z 32010KT 10SM SCT090 M09/M14 A3023 RMK AO2 SLP243 T10891139
KIAD 180752Z 32012G17KT 10SM SCT090 M08/M14 A3020 RMK AO2 SLP230 T10831139
KIAD 180852Z 32013G23KT 10SM FEW090 M08/M14 A3016 RMK AO2 SLP217 T10781144 58036
KIAD 180952Z 32012KT 10SM FEW090 M08/M15 A3017 RMK AO2 SLP220 T10781150
KIAD 181052Z 32013KT 10SM FEW100 M07/M15 A3018 RMK AO2 SLP222 T10721150
KIAD 181152Z 31012G19KT 10SM FEW100 FEW250 M07/M15 A3019 RMK AO2 SLP227 T10671150 11067 21089 53010
KIAD 181252Z 31012G20KT 10SM FEW100 M06/M15 A3019 RMK AO2 SLP226 T10561150
KIAD 181352Z 31010KT 10SM FEW110 M04/M15 A3018 RMK AO2 SLP224 T10391150
KIAD 181452Z 30013KT 10SM FEW110 M02/M14 A3019 RMK AO2 SLP226 T10221144 55002